Terminal Aerodrome Forecast
Issued by NWS Sioux Falls, SD

Home | Current Version | Previous Version | Text Only | Print | Product List | Glossary On
Versions: 1 2 3 4 5 6 7 8 9 10 11 12 13 14 15 16 17 18
000
FTUS43 KFSD 242320
TAFFSD
TAF
KFSD 242320Z 2500/2524 12012G17KT P6SM SCT050 BKN200
     FM250100 11011KT P6SM OVC022
      TEMPO 2503/2505 5SM -SHRA BKN015
     FM250500 07010KT 6SM BR OVC012
     FM251600 06013KT P6SM OVC022
     FM252000 07013KT P6SM BKN035=

USA.gov is the U.S. government's official web portal to all federal, state and local government web resources and services.